METAR Data
IDs: Format: Raw Decoded Include TAF

Data at: 1511 UTC 22 Apr 2021

KFMY 221453Z 05008KT 10SM CLR 25/16 A3009 RMK AO2 SLP189 T02500156 51010
KFMY 221353Z 05011KT 10SM CLR 23/16 A3007 RMK AO2 SLP186 T02280156
KFMY 221253Z 03010KT 10SM CLR 22/16 A3007 RMK AO2 SLP185 T02170161
KFMY 221153Z 02009KT 010V080 10SM FEW120 21/16 A3005 RMK AO2 SLP179 70004 T02060156 10211 20194 53015
KFMY 221053Z 36008KT 10SM CLR 19/16 A3004 RMK AO2 SLP173 T01940156
KFMY 220953Z AUTO 35007KT 10SM CLR 20/15 A3002 RMK AO2 SLP167 T02000150
KFMY 220853Z AUTO 35007KT 10SM CLR 20/16 A3001 RMK AO2 SLP164 T02000156 55004
KFMY 220753Z AUTO 34006KT 10SM CLR 21/15 A3001 RMK AO2 SLP162 T02060150
KFMY 220653Z AUTO 34008KT 10SM OVC070 21/16 A3001 RMK AO2 SLP164 T02110156
KFMY 220553Z AUTO 36003KT 10SM BKN060 21/14 A3002 RMK AO2 SLP168 60000 T02110139 10244 20211 58001
KFMY 220453Z AUTO 33006KT 10SM CLR 21/16 A3003 RMK AO2 SLP171 T02110156 402890211
KFMY 220353Z AUTO 33003KT 10SM CLR 22/16 A3003 RMK AO2 SLP171 T02220161
KFMY 220253Z AUTO 00000KT 10SM CLR 23/17 A3002 RMK AO2 SLP168 60000 T02280172 53012
KFMY 220153Z AUTO 34010KT 10SM CLR 23/17 A2999 RMK AO2 RAE22 SLP157 P0000 T02280172
KFMY 220053Z 31007KT 10SM -RA SCT110 23/18 A2999 RMK AO2 RAB45 SLP158 P0000 T02330183
KFMY 212353Z 30009KT 10SM SCT120 24/19 A2999 RMK AO2 SLP157 T02440189 10289 20244 53004
KFMY 212253Z 28010KT 10SM BKN120 26/18 A2999 RMK AO2 SLP157 T02560183
KFMY 212153Z 27009KT 10SM SCT048 27/19 A2998 RMK AO2 SLP152 T02670189
KFMY 212053Z AUTO 28011KT 10SM FEW047 BKN055 28/18 A2998 RMK AO2 SLP153 T02780178 55010
KFMY 211953Z 34006KT 10SM CLR 28/17 A2996 RMK AO2 SLP149 T02830172
KFMY 211853Z 33006KT 10SM OVC060 27/19 A2999 RMK AO2 SLP155 T02720189
KFMY 211753Z 00000KT 10SM FEW047 BKN060 26/19 A3001 RMK AO2 SLP163 60004 T02610194 10261 20228 58002
KFMY 211653Z 32003KT 10SM FEW019 SCT050 OVC070 26/21 A3002 RMK AO2 SLP169 T02560211
KFMY 211553Z VRB05KT 10SM FEW015 BKN040 OVC047 26/22 A3003 RMK AO2 SLP169 T02560217
KFMY 211544Z 36005KT 10SM SCT015 OVC046 25/22 A3003 RMK AO2 T02500217
KFMY 211530Z 00000KT 10SM BKN013 BKN046 OVC055 24/22 A3002 RMK AO2 T02440222
KFMY 211520Z 00000KT 10SM SCT011 BKN016 BKN047 25/22 A3002 RMK AO2 T02500222
KFMY 211453Z 09003KT 10SM FEW008 BKN060 24/23 A3001 RMK AO2 SLP165 60004 T02440228 53012
KFMY 211353Z 01004KT 10SM FEW008 BKN043 OVC065 24/23 A3000 RMK AO2 SLP160 T02390228
KFMY 211346Z 36005KT 10SM FEW009 BKN043 24/23 A3000 RMK AO2 T02390228
KFMY 211327Z 02005KT 10SM FEW017 SCT024 BKN043 23/23 A2999 RMK AO2 T02330228
KFMY 211312Z 35003KT 10SM SCT018 BKN023 BKN065 23/23 A2999 RMK AO2 T02330228
KFMY 211253Z 01005KT 10SM FEW049 SCT070 BKN090 23/23 A2998 RMK AO2 LTG DSNT E AND SE RAB02E50 SLP153 P0004 T02330228
KFMY 211239Z 10005KT 3SM RA BR FEW016 BKN050 OVC090 23/23 A2996 RMK AO2 LTG DSNT E-S RAB02 P0004 T02280228
KFMY 211153Z 05003KT 10SM SCT015 BKN025 OVC030 23/22 A2998 RMK AO2 LTG DSNT E AND W AND NW RAB1059E29 SLP153 P0018 60018 70106 T02280222 10228 20217 53008
KFMY 211133Z 34004KT 10SM OVC015 23/22 A2997 RMK AO2 LTG DSNT NE AND E RAB1059E29 P0018 T02280222
KFMY 211102Z 35012KT 2SM +RA BR SCT008 BKN017 OVC070 23/22 A2996 RMK AO2 LTG DSNT NE RAB1059 P0005 T02280222
KFMY 211100Z 35012KT 4SM -RA BR SCT008 BKN032 OVC070 23/22 A2996 RMK AO2 LTG DSNT NE RAB1059 P0000 T02280222
KFMY 211053Z AUTO 10003KT 10SM VCTS FEW011 BKN047 OVC070 23/23 A2995 RMK AO2 LTG DSNT NE SLP145 T02280228
KFMY 211051Z AUTO 11003KT 10SM VCTS FEW011 SCT047 OVC070 23/23 A2995 RMK AO2 LTG DSNT NE
KFMY 211039Z AUTO 15003KT 10SM FEW044 BKN070 23/22 A2995 RMK AO2 LTG DSNT N AND NE T02280222
KFMY 211023Z AUTO 16004KT 10SM VCTS FEW043 BKN070 23/22 A2995 RMK AO2 LTG DSNT N AND NE T02280222
KFMY 210953Z AUTO 15004KT 10SM SCT013 BKN040 OVC070 23/22 A2995 RMK AO2 LTG DSNT NW SLP145 T02280222
KFMY 210936Z AUTO 00000KT 10SM SCT014 SCT018 BKN024 23/22 A2996 RMK AO2 LTG DSNT NW T02280222
KFMY 210853Z AUTO 00000KT 10SM SCT014 22/22 A2995 RMK AO2 SLP144 T02220222 56002
KFMY 210851Z AUTO 00000KT 10SM SCT012 SCT017 23/22 A2995 RMK AO2
KFMY 210830Z AUTO 19004KT 10SM BKN011 23/22 A2995 RMK AO2 T02280222
KFMY 210753Z AUTO 00000KT 10SM SCT041 22/22 A2995 RMK AO2 SLP145 T02220217
KFMY 210730Z AUTO 19003KT 10SM FEW014 SCT020 OVC039 23/22 A2995 RMK AO2 T02280222
KFMY 210707Z AUTO 19004KT 10SM BKN015 BKN021 BKN120 22/22 A2995 RMK AO2 T02220217
KFMY 210653Z AUTO 17004KT 10SM FEW015 SCT120 22/22 A2995 RMK AO2 SLP143 T02170217
KFMY 210553Z AUTO 00000KT 10SM CLR 22/22 A2996 RMK AO2 SLP147 T02220217 10250 20222 58001
KFMY 210453Z AUTO 17005KT 10SM CLR 22/22 A2997 RMK AO2 SLP150 T02220217 402830217
KFMY 210353Z AUTO 00000KT 10SM CLR 23/22 A2997 RMK AO2 SLP151 T02330217